Time;durP1;ratioP1;P1;durP2;ratioP2;P2;SDS_P1;SDS_P2;PMS_P1;PMS_P2;Temp;Humidity;BMP_temperature;BMP_pressure;BME280_temperature;BME280_humidity;BME280_pressure;Samples;Min_cycle;Max_cycle;Signal;HPM_P1;HPM_P2
2022/08/25 00:01:44;;;;;;;6.55;2.05;;;;;;;26.13;36.98;100100.13;5051873;28;20580;-86
2022/08/25 00:04:14;;;;;;;4.45;1.50;;;;;;;26.10;37.13;100102.38;5052384;28;20403;-87
2022/08/25 00:06:44;;;;;;;3.97;1.60;;;;;;;26.05;37.03;100094.00;5051271;28;20055;-85
2022/08/25 00:09:13;;;;;;;3.63;1.80;;;;;;;25.98;36.48;100102.78;5052238;28;20425;-85
2022/08/25 00:11:41;;;;;;;5.10;1.80;;;;;;;25.95;37.11;100102.31;5052188;28;20109;-85
2022/08/25 00:14:14;;;;;;;2.42;1.58;;;;;;;25.88;38.23;100102.19;5052789;28;20049;-85
2022/08/25 00:16:42;;;;;;;4.03;1.70;;;;;;;25.86;37.83;100099.69;5052468;28;20049;-85
2022/08/25 00:19:15;;;;;;;6.82;1.88;;;;;;;25.81;37.44;100102.09;5052458;28;20163;-85
2022/08/25 00:21:44;;;;;;;4.50;1.65;;;;;;;25.78;37.17;100099.75;5052680;28;20056;-85
2022/08/25 00:24:12;;;;;;;3.28;1.45;;;;;;;25.73;37.32;100108.38;5050732;28;20052;-85
2022/08/25 00:26:41;;;;;;;3.50;1.73;;;;;;;25.68;37.96;100102.66;5051721;28;20457;-85
2022/08/25 00:29:09;;;;;;;4.00;1.85;;;;;;;25.65;37.88;100099.50;5052125;28;20057;-85
2022/08/25 00:31:37;;;;;;;3.17;1.75;;;;;;;25.60;37.62;100106.25;5051994;28;20053;-85
2022/08/25 00:34:13;;;;;;;8.23;2.13;;;;;;;25.55;38.32;100100.53;5052122;28;20423;-86
2022/08/25 00:36:40;;;;;;;3.22;1.90;;;;;;;25.54;38.15;100098.88;5051797;28;20507;-85
2022/08/25 00:39:08;;;;;;;5.72;2.15;;;;;;;25.51;38.27;100112.69;5051999;28;20049;-86
2022/08/25 00:41:37;;;;;;;3.33;1.88;;;;;;;25.47;38.59;100109.53;5051836;28;20107;-86
2022/08/25 00:44:07;;;;;;;4.10;2.10;;;;;;;25.42;39.51;100111.06;5052032;28;20053;-86
2022/08/25 00:46:37;;;;;;;4.32;1.70;;;;;;;25.38;39.79;100111.41;5049808;28;20057;-86
2022/08/25 00:49:12;;;;;;;4.38;1.65;;;;;;;25.34;39.22;100114.66;5051077;28;20101;-86
2022/08/25 00:51:58;;;;;;;2.33;1.73;;;;;;;25.34;39.22;100103.88;5050656;28;20053;-85
2022/08/25 00:54:37;;;;;;;2.85;1.85;;;;;;;25.27;40.00;100106.44;5051551;28;20051;-85
2022/08/25 00:57:06;;;;;;;3.72;2.10;;;;;;;25.26;39.58;100107.41;5049974;28;20053;-85
2022/08/25 00:59:33;;;;;;;1.70;1.50;;;;;;;25.24;39.23;100106.78;5051457;28;20044;-86
2022/08/25 01:02:01;;;;;;;3.25;1.70;;;;;;;25.20;39.51;100105.44;5052105;28;20057;-83
2022/08/25 01:04:28;;;;;;;9.38;2.00;;;;;;;25.15;39.13;100103.25;5056273;28;20053;-84
2022/08/25 01:06:56;;;;;;;5.07;1.70;;;;;;;25.10;39.63;100105.66;5055641;28;20048;-84
2022/08/25 01:09:23;;;;;;;2.97;1.80;;;;;;;25.07;39.60;100103.28;5055598;28;20045;-83
2022/08/25 01:11:51;;;;;;;5.38;1.80;;;;;;;25.02;39.87;100098.44;5056981;28;20393;-85
2022/08/25 01:14:20;;;;;;;3.22;2.00;;;;;;;25.01;39.78;100106.69;5057629;28;20060;-85
2022/08/25 01:16:47;;;;;;;2.05;1.75;;;;;;;24.97;39.36;100106.22;5056146;28;20056;-85
2022/08/25 01:19:20;;;;;;;5.40;2.17;;;;;;;24.94;39.91;100110.09;5059217;28;20045;-86
2022/08/25 01:21:49;;;;;;;2.38;1.90;;;;;;;24.92;40.27;100105.88;5057892;28;20106;-86
2022/08/25 01:24:46;;;;;;;3.80;2.17;;;;;;;24.84;41.07;100110.28;5057874;28;20056;-84
2022/08/25 01:27:13;;;;;;;4.63;1.88;;;;;;;24.87;40.75;100108.25;5057005;28;20399;-85
2022/08/25 01:29:40;;;;;;;4.78;2.05;;;;;;;24.83;39.64;100107.72;5057659;28;20099;-86
2022/08/25 01:32:10;;;;;;;4.35;2.03;;;;;;;24.78;39.63;100110.94;5056879;28;20049;-86
2022/08/25 01:34:40;;;;;;;2.97;1.85;;;;;;;24.77;40.26;100108.41;5058304;28;20045;-83
2022/08/25 01:37:09;;;;;;;6.03;1.85;;;;;;;24.73;40.23;100105.22;5057116;28;20144;-83
2022/08/25 01:39:40;;;;;;;3.00;1.90;;;;;;;24.70;39.52;100108.25;5058907;28;20054;-83
2022/08/25 01:42:10;;;;;;;2.85;1.83;;;;;;;24.68;40.32;100103.06;5059610;28;20490;-84
2022/08/25 01:44:40;;;;;;;5.45;2.15;;;;;;;24.68;40.29;100107.59;5056953;28;20083;-83
2022/08/25 01:47:07;;;;;;;3.95;1.85;;;;;;;24.66;40.58;100112.31;5056346;28;20063;-83
2022/08/25 01:49:34;;;;;;;2.67;1.88;;;;;;;24.62;40.39;100101.06;5055354;28;20049;-84
2022/08/25 01:52:06;;;;;;;4.88;1.80;;;;;;;24.60;40.03;100103.09;5056493;28;20053;-84
2022/08/25 01:54:32;;;;;;;5.65;2.30;;;;;;;24.58;40.54;100100.56;5057727;28;20053;-83
2022/08/25 01:56:59;;;;;;;3.40;1.88;;;;;;;24.55;40.75;100100.91;5058531;28;20522;-84
2022/08/25 01:59:26;;;;;;;3.75;2.00;;;;;;;24.53;40.38;100099.38;5057211;28;20052;-83
2022/08/25 02:01:53;;;;;;;3.55;1.90;;;;;;;24.50;40.57;100100.56;5056303;28;20453;-86
2022/08/25 02:04:30;;;;;;;5.47;1.85;;;;;;;24.48;40.72;100104.44;5052474;28;20548;-86
2022/08/25 02:06:59;;;;;;;5.13;1.80;;;;;;;24.48;41.17;100101.75;5051727;28;20496;-84
2022/08/25 02:09:25;;;;;;;4.22;1.80;;;;;;;24.46;41.12;100096.53;5051311;28;20084;-85
2022/08/25 02:11:52;;;;;;;4.18;1.90;;;;;;;24.44;41.97;100094.03;5052371;28;20045;-88
2022/08/25 02:14:19;;;;;;;2.63;1.70;;;;;;;24.42;41.78;100089.81;5052641;28;20107;-88
2022/08/25 02:16:49;;;;;;;3.25;1.88;;;;;;;24.39;41.44;100096.38;5052385;28;20061;-87
2022/08/25 02:19:17;;;;;;;3.10;1.83;;;;;;;24.37;41.44;100102.94;5054508;28;20053;-85
2022/08/25 02:21:44;;;;;;;4.55;2.13;;;;;;;24.33;41.50;100095.22;5055273;28;20060;-85
2022/08/25 02:24:11;;;;;;;3.00;2.00;;;;;;;24.31;42.14;100089.19;5055521;28;20057;-86
2022/08/25 02:26:39;;;;;;;4.18;2.10;;;;;;;24.27;42.08;100082.44;5055447;28;20053;-86
2022/08/25 02:29:07;;;;;;;6.75;1.90;;;;;;;24.25;42.11;100084.47;5053783;28;20463;-87
2022/08/25 02:31:34;;;;;;;3.70;1.85;;;;;;;24.23;41.57;100086.50;5054914;28;20075;-85
2022/08/25 02:34:01;;;;;;;9.27;1.95;;;;;;;24.19;41.76;100079.78;5055092;28;20507;-85
2022/08/25 02:36:29;;;;;;;6.28;2.03;;;;;;;24.16;41.71;100075.56;5054271;28;20056;-86
2022/08/25 02:38:56;;;;;;;4.35;1.95;;;;;;;24.15;42.84;100086.50;5054381;28;20099;-85
2022/08/25 02:41:25;;;;;;;4.63;2.25;;;;;;;24.12;42.52;100084.13;5056488;28;20056;-87
2022/08/25 02:44:07;;;;;;;5.13;2.20;;;;;;;24.08;42.24;100081.75;4993094;28;20054;-87
2022/08/25 02:46:35;;;;;;;4.97;1.92;;;;;;;24.04;42.08;100088.47;4994439;28;20043;-87
2022/08/25 02:49:01;;;;;;;3.30;1.85;;;;;;;24.01;42.62;100079.91;4994447;28;20058;-87
2022/08/25 02:51:29;;;;;;;5.05;1.98;;;;;;;23.96;42.60;100085.81;4994741;28;20193;-86
2022/08/25 02:53:57;;;;;;;3.88;2.10;;;;;;;23.91;42.55;100083.59;4994824;28;20663;-85
2022/08/25 02:56:27;;;;;;;5.68;1.95;;;;;;;23.88;42.98;100088.47;4996422;28;20142;-87
2022/08/25 02:58:53;;;;;;;5.60;2.47;;;;;;;23.86;43.27;100082.41;4994508;28;20093;-86
2022/08/25 03:01:20;;;;;;;3.55;2.47;;;;;;;23.83;43.18;100080.91;4995132;28;20053;-84
2022/08/25 03:03:54;;;;;;;4.70;2.55;;;;;;;23.79;43.13;100077.72;4993365;28;20064;-84
2022/08/25 03:06:24;;;;;;;4.78;2.50;;;;;;;23.76;43.55;100079.88;4993787;28;20073;-84
2022/08/25 03:08:52;;;;;;;7.03;2.88;;;;;;;23.72;43.44;100086.59;4993272;28;20057;-83
2022/08/25 03:11:19;;;;;;;3.38;2.58;;;;;;;23.69;43.41;100082.38;4993156;28;20089;-85
2022/08/25 03:13:48;;;;;;;5.65;3.13;;;;;;;23.67;42.89;100084.41;4994914;28;20054;-83
2022/08/25 03:16:15;;;;;;;4.70;3.00;;;;;;;23.63;44.03;100086.56;5054879;28;20048;-85
2022/08/25 03:18:43;;;;;;;5.35;3.22;;;;;;;23.61;43.74;100085.06;5054944;28;20502;-84
2022/08/25 03:21:10;;;;;;;8.10;3.50;;;;;;;23.57;44.13;100087.25;5054658;28;20053;-85
2022/08/25 03:23:39;;;;;;;8.48;3.40;;;;;;;23.55;43.87;100089.28;5054696;28;20061;-85
2022/08/25 03:28:54;;;;;;;7.18;3.45;;;;;;;23.49;44.04;100088.06;5053402;28;20064;-84
2022/08/25 03:31:26;;;;;;;4.40;2.90;;;;;;;23.45;45.10;100096.63;5053761;28;20060;-85
2022/08/25 03:33:54;;;;;;;6.28;2.90;;;;;;;23.43;44.05;100091.41;5052320;28;20048;-84
2022/08/25 03:36:21;;;;;;;4.85;2.80;;;;;;;23.38;43.31;100081.16;5054196;28;20068;-85
2022/08/25 03:38:47;;;;;;;4.32;2.80;;;;;;;23.35;43.66;100083.31;5052882;28;20052;-84
2022/08/25 03:41:23;;;;;;;4.50;2.42;;;;;;;23.29;43.13;100080.25;5053174;28;20041;-85
2022/08/25 03:43:54;;;;;;;6.47;2.80;;;;;;;23.28;43.12;100077.72;5053516;28;20055;-85
2022/08/25 03:46:24;;;;;;;5.88;2.40;;;;;;;23.26;43.35;100075.22;5053716;28;20438;-85
2022/08/25 03:48:52;;;;;;;4.22;2.50;;;;;;;23.26;43.52;100069.00;5054372;28;20060;-85
2022/08/25 03:51:43;;;;;;;2.78;1.98;;;;;;;23.21;43.77;100068.66;5053861;28;20060;-85
2022/08/25 03:54:10;;;;;;;8.35;2.42;;;;;;;23.25;43.74;100068.16;5053119;28;20395;-85
2022/08/25 03:56:37;;;;;;;3.90;2.08;;;;;;;23.24;43.37;100055.75;5051736;28;20053;-85
2022/08/25 03:59:04;;;;;;;6.25;2.13;;;;;;;23.22;43.42;100057.75;5053443;28;20053;-85
2022/08/25 04:01:32;;;;;;;6.45;2.20;;;;;;;23.19;43.46;100057.22;5055605;28;20049;-87
2022/08/25 04:03:59;;;;;;;4.30;1.95;;;;;;;23.16;43.79;100047.66;5055040;28;20578;-86
2022/08/25 04:06:25;;;;;;;4.00;2.10;;;;;;;23.12;43.48;100048.97;5056428;28;20403;-86
2022/08/25 04:08:52;;;;;;;6.88;2.00;;;;;;;23.08;43.39;100047.63;5055987;28;20514;-86
2022/08/25 04:11:21;;;;;;;3.83;2.15;;;;;;;23.06;43.36;100041.59;5056319;28;20060;-85
2022/08/25 04:13:49;;;;;;;3.75;2.10;;;;;;;23.02;43.62;100041.91;5056167;28;20048;-87
2022/08/25 04:16:24;;;;;;;4.68;1.77;;;;;;;23.02;44.53;100036.53;5056920;28;20107;-87
2022/08/25 04:18:53;;;;;;;7.18;3.17;;;;;;;23.03;45.08;100046.28;5056241;28;20056;-87
2022/08/25 04:21:21;;;;;;;3.22;2.00;;;;;;;23.03;45.02;100043.59;5057389;28;20053;-88
2022/08/25 04:23:49;;;;;;;4.97;2.70;;;;;;;23.03;45.42;100040.91;5054608;28;20053;-86
2022/08/25 04:26:23;;;;;;;4.38;2.03;;;;;;;22.99;46.06;100039.53;5053799;28;20069;-86
2022/08/25 04:28:50;;;;;;;4.72;2.40;;;;;;;23.01;45.64;100040.22;5056056;28;20049;-87
2022/08/25 04:31:19;;;;;;;6.57;2.10;;;;;;;22.99;45.81;100044.09;5056428;28;20045;-86
2022/08/25 04:33:46;;;;;;;2.90;2.05;;;;;;;22.98;46.15;100040.56;5050733;28;20052;-85
2022/08/25 04:36:15;;;;;;;4.95;2.30;;;;;;;22.95;46.03;100046.22;5053643;28;20059;-87
2022/08/25 04:38:43;;;;;;;5.57;2.22;;;;;;;22.90;45.26;100040.50;5060916;28;20064;-87
2022/08/25 04:41:12;;;;;;;4.95;2.35;;;;;;;22.87;45.39;100048.88;5061289;28;20045;-87
2022/08/25 04:43:40;;;;;;;3.97;2.33;;;;;;;22.83;45.37;100047.56;5053853;28;20056;-87
2022/08/25 04:46:16;;;;;;;4.25;2.03;;;;;;;22.78;45.26;100045.34;5052660;28;20052;-86
2022/08/25 04:48:47;;;;;;;2.97;2.10;;;;;;;22.74;45.32;100043.97;5052550;28;20056;-86
2022/08/25 04:51:22;;;;;;;2.60;2.00;;;;;;;22.70;44.93;100039.94;5052360;28;20052;-85
2022/08/25 04:53:50;;;;;;;3.55;2.00;;;;;;;22.69;45.01;100038.25;5056550;28;20048;-85
2022/08/25 04:56:18;;;;;;;3.17;1.85;;;;;;;22.69;45.21;100040.94;5057248;28;20048;-85
2022/08/25 04:58:48;;;;;;;3.53;2.00;;;;;;;22.68;45.15;100034.72;5055865;28;20059;-85
2022/08/25 05:01:17;;;;;;;4.30;2.00;;;;;;;22.69;45.23;100035.56;5058142;28;20045;-83
2022/08/25 05:03:53;;;;;;;3.45;1.85;;;;;;;22.67;44.80;100030.34;5057850;28;20059;-83
2022/08/25 05:06:20;;;;;;;2.53;1.85;;;;;;;22.71;45.13;100025.50;5058183;28;20060;-85
2022/08/25 05:08:46;;;;;;;5.05;2.17;;;;;;;22.73;45.12;100024.34;5058032;28;20048;-83
2022/08/25 05:11:16;;;;;;;2.50;1.73;;;;;;;22.74;45.06;100033.25;5056712;28;20057;-83
2022/08/25 05:13:48;;;;;;;3.20;1.77;;;;;;;22.74;46.08;100027.88;5056719;28;20053;-83
2022/08/25 05:16:18;;;;;;;3.17;1.83;;;;;;;22.78;45.31;100037.28;5056862;28;20098;-83
2022/08/25 05:18:45;;;;;;;3.83;1.98;;;;;;;22.78;45.49;100030.09;5056265;28;20445;-83
2022/08/25 05:21:14;;;;;;;2.95;2.10;;;;;;;22.80;45.16;100031.75;5058092;28;20057;-84
2022/08/25 05:23:42;;;;;;;2.85;1.70;;;;;;;22.81;45.19;100028.06;5057802;28;20063;-83
2022/08/25 05:26:12;;;;;;;3.95;1.50;;;;;;;22.81;45.01;100023.56;5056307;28;20060;-83
2022/08/25 05:28:46;;;;;;;4.10;1.80;;;;;;;22.85;45.23;100032.97;5057554;28;20057;-83
2022/08/25 05:31:14;;;;;;;2.97;2.00;;;;;;;22.88;45.13;100031.81;5056898;28;20060;-85
2022/08/25 05:33:41;;;;;;;2.55;1.95;;;;;;;22.91;45.21;100039.50;5057220;28;20106;-85
2022/08/25 05:36:10;;;;;;;3.00;1.67;;;;;;;22.95;45.23;100042.72;5057368;28;20063;-83
2022/08/25 05:38:39;;;;;;;6.07;2.05;;;;;;;22.99;44.83;100042.22;5056063;28;20057;-85
2022/08/25 05:41:10;;;;;;;5.72;1.77;;;;;;;23.02;44.92;100049.13;5057152;28;20048;-83
2022/08/25 05:43:38;;;;;;;4.72;2.42;;;;;;;23.09;45.13;100046.63;5057310;28;20052;-85
2022/08/25 05:46:06;;;;;;;2.13;1.80;;;;;;;23.13;45.20;100047.97;5057345;28;20433;-85
2022/08/25 05:48:33;;;;;;;2.78;1.60;;;;;;;23.14;44.97;100045.13;5059499;28;20047;-85
2022/08/25 05:51:02;;;;;;;3.05;2.08;;;;;;;23.16;45.45;100039.59;5059118;28;20051;-86
2022/08/25 05:53:29;;;;;;;3.90;1.80;;;;;;;23.20;45.73;100054.38;5059809;28;20067;-87
2022/08/25 05:56:00;;;;;;;4.25;2.00;;;;;;;23.22;45.31;100043.47;5058841;28;20044;-85
2022/08/25 05:58:28;;;;;;;5.65;1.98;;;;;;;23.23;45.33;100043.31;5057575;28;20107;-83
2022/08/25 06:00:57;;;;;;;3.58;2.10;;;;;;;23.24;45.38;100036.94;5058686;28;20045;-84
2022/08/25 06:03:24;;;;;;;5.57;2.33;;;;;;;23.26;45.49;100042.16;5053384;28;20413;-85
2022/08/25 06:05:50;;;;;;;7.35;2.58;;;;;;;23.29;44.95;100039.16;5053780;28;20049;-85
2022/08/25 06:08:18;;;;;;;3.75;2.05;;;;;;;23.32;45.41;100036.09;5054119;28;20059;-85
2022/08/25 06:10:44;;;;;;;3.08;2.10;;;;;;;23.36;45.27;100034.00;5052725;28;20049;-86
2022/08/25 06:13:11;;;;;;;5.18;2.17;;;;;;;23.40;45.67;100035.34;5053904;28;20053;-85
2022/08/25 06:15:38;;;;;;;4.82;2.22;;;;;;;23.45;45.11;100024.09;5052652;28;20048;-84
2022/08/25 06:18:04;;;;;;;5.30;2.30;;;;;;;23.50;45.13;100033.34;5052023;28;20068;-84
2022/08/25 06:20:31;;;;;;;3.47;2.20;;;;;;;23.54;45.27;100023.94;5052739;28;20525;-85
2022/08/25 06:22:59;;;;;;;2.83;1.83;;;;;;;23.60;45.50;100026.97;5053324;28;20503;-85
2022/08/25 06:25:26;;;;;;;4.35;2.20;;;;;;;23.64;45.23;100033.69;5051693;28;20065;-86
2022/08/25 06:27:53;;;;;;;3.30;2.03;;;;;;;23.68;45.22;100029.66;5053194;28;20053;-86
2022/08/25 06:30:22;;;;;;;4.72;2.10;;;;;;;23.72;45.07;100036.38;5053232;28;20049;-86
2022/08/25 06:32:54;;;;;;;4.50;2.10;;;;;;;23.76;45.06;100037.72;5053476;28;20056;-85
2022/08/25 06:35:21;;;;;;;2.67;2.10;;;;;;;23.81;45.50;100027.31;5053464;28;20511;-86
2022/08/25 06:37:48;;;;;;;2.90;2.10;;;;;;;23.86;45.38;100026.81;5053162;28;20051;-86
2022/08/25 06:40:15;;;;;;;5.35;2.38;;;;;;;23.90;45.40;100022.78;5054034;28;20060;-88
2022/08/25 06:42:47;;;;;;;8.98;2.50;;;;;;;23.95;45.76;100027.63;5052463;28;20110;-86
2022/08/25 06:45:14;;;;;;;7.18;2.40;;;;;;;24.02;45.43;100025.97;5051817;28;20382;-86
2022/08/25 06:47:41;;;;;;;4.28;2.20;;;;;;;24.07;45.40;100028.97;5052618;28;20057;-86
2022/08/25 06:50:11;;;;;;;4.30;2.53;;;;;;;24.13;45.21;100032.03;5051865;28;20056;-86
2022/08/25 06:52:38;;;;;;;7.00;2.40;;;;;;;24.20;45.26;100033.88;5052708;28;20045;-84
2022/08/25 06:55:05;;;;;;;4.07;2.50;;;;;;;24.27;45.40;100038.56;5050983;28;20053;-84
2022/08/25 06:57:34;;;;;;;2.67;2.03;;;;;;;24.34;45.09;100034.19;5052287;28;20140;-84
2022/08/25 07:00:05;;;;;;;4.30;2.20;;;;;;;24.40;45.56;100043.44;5052891;28;20465;-85
2022/08/25 07:02:32;;;;;;;3.92;2.47;;;;;;;24.46;45.81;100043.59;5053447;28;20061;-86
2022/08/25 07:05:01;;;;;;;5.90;2.30;;;;;;;24.53;45.62;100051.81;5052685;28;20049;-85
2022/08/25 07:07:30;;;;;;;4.80;2.30;;;;;;;24.60;45.82;100050.09;5053138;28;20092;-85
2022/08/25 07:10:09;;;;;;;2.85;2.10;;;;;;;24.68;45.41;100048.38;5052254;28;20463;-85
2022/08/25 07:12:35;;;;;;;5.30;2.47;;;;;;;24.73;45.66;100046.00;5052368;28;20049;-84
2022/08/25 07:15:03;;;;;;;4.47;2.60;;;;;;;24.80;45.66;100048.84;5052828;28;20092;-85
2022/08/25 07:17:46;;;;;;;11.80;2.80;;;;;;;24.88;45.14;100040.78;5052894;28;20352;-85
2022/08/25 07:20:15;;;;;;;3.55;2.20;;;;;;;24.94;45.28;100047.31;5051784;28;20052;-85
2022/08/25 07:22:42;;;;;;;5.22;2.38;;;;;;;25.02;45.70;100041.91;5053161;28;20057;-84
2022/08/25 07:25:10;;;;;;;3.97;2.17;;;;;;;25.08;45.83;100045.75;5052955;28;20059;-84
2022/08/25 07:27:38;;;;;;;6.25;2.53;;;;;;;25.15;45.27;100044.00;5052187;28;20053;-84
2022/08/25 07:30:08;;;;;;;5.55;2.50;;;;;;;25.21;45.44;100040.63;5052951;28;20456;-85
2022/08/25 07:32:36;;;;;;;4.65;2.22;;;;;;;25.29;45.32;100049.66;5052604;28;20049;-85
2022/08/25 07:35:14;;;;;;;6.90;2.30;;;;;;;25.35;45.23;100051.66;5053077;28;20453;-85
2022/08/25 07:37:49;;;;;;;4.45;2.53;;;;;;;25.40;45.53;100056.50;5052828;28;20072;-84
2022/08/25 07:40:24;;;;;;;5.28;2.50;;;;;;;25.47;45.64;100052.06;5051698;28;20521;-85
2022/08/25 07:42:54;;;;;;;3.90;2.55;;;;;;;25.55;45.16;100054.72;5052637;28;20122;-85
2022/08/25 07:45:29;;;;;;;6.75;2.60;;;;;;;25.61;45.28;100058.59;5052608;28;20056;-85
2022/08/25 07:47:56;;;;;;;3.83;2.67;;;;;;;25.68;44.95;100056.84;5051935;28;20049;-85
2022/08/25 07:50:23;;;;;;;6.38;2.60;;;;;;;25.74;45.49;100063.38;5050353;28;20049;-84
2022/08/25 07:52:50;;;;;;;4.75;2.60;;;;;;;25.82;45.35;100066.00;5050345;28;20534;-85
2022/08/25 07:55:23;;;;;;;7.60;2.53;;;;;;;25.88;45.28;100062.59;5051198;28;20048;-85
2022/08/25 07:57:51;;;;;;;4.43;2.47;;;;;;;25.95;45.18;100068.13;5051992;28;20048;-85
2022/08/25 08:00:22;;;;;;;5.88;3.05;;;;;;;26.02;45.35;100068.22;5051910;28;20052;-84
2022/08/25 08:02:50;;;;;;;3.67;2.80;;;;;;;26.10;45.46;100075.41;5052289;28;20048;-85
2022/08/25 08:05:16;;;;;;;3.70;2.50;;;;;;;26.15;45.81;100064.88;5050818;28;20053;-86
2022/08/25 08:07:43;;;;;;;6.15;2.40;;;;;;;26.24;45.61;100065.66;5051113;28;20071;-87
2022/08/25 08:10:13;;;;;;;2.22;1.98;;;;;;;26.30;45.69;100059.56;5051895;28;20548;-85
2022/08/25 08:13:00;;;;;;;3.60;2.50;;;;;;;26.41;45.83;100056.41;5051435;28;20118;-87
2022/08/25 08:15:27;;;;;;;6.82;2.65;;;;;;;26.49;45.29;100058.19;5051252;28;20076;-85
2022/08/25 08:17:56;;;;;;;5.82;2.42;;;;;;;26.57;45.55;100051.84;5051011;28;20056;-86
2022/08/25 08:20:24;;;;;;;5.28;2.88;;;;;;;26.65;45.30;100053.63;5050697;28;20049;-87
2022/08/25 08:22:51;;;;;;;3.83;2.72;;;;;;;26.74;44.88;100046.25;5051164;28;20048;-86
2022/08/25 08:25:17;;;;;;;3.53;2.83;;;;;;;26.83;45.06;100044.31;5051618;28;20053;-86
2022/08/25 08:27:52;;;;;;;3.97;2.55;;;;;;;26.91;44.71;100039.63;5054715;28;20457;-87
2022/08/25 08:30:21;;;;;;;4.07;2.80;;;;;;;26.98;44.66;100037.03;5052936;28;20053;-87
2022/08/25 08:32:52;;;;;;;4.35;2.40;;;;;;;27.09;45.00;100040.31;5054352;28;20049;-86
2022/08/25 08:35:35;;;;;;;7.57;2.63;;;;;;;27.18;44.74;100042.66;5054737;28;20497;-88
2022/08/25 08:38:02;;;;;;;6.43;2.80;;;;;;;27.27;44.80;100039.84;5057940;28;20509;-87
2022/08/25 08:40:30;;;;;;;5.50;2.85;;;;;;;27.35;45.18;100031.63;5057097;28;20053;-87
2022/08/25 08:43:07;;;;;;;5.03;3.05;;;;;;;27.43;45.26;100031.50;5056452;28;20045;-86
2022/08/25 08:45:50;;;;;;;4.30;2.70;;;;;;;27.57;44.52;100031.66;5060207;28;20469;-86
2022/08/25 08:48:38;;;;;;;4.95;2.88;;;;;;;27.66;44.28;100024.28;5060504;28;20049;-85
2022/08/25 08:51:18;;;;;;;4.63;3.05;;;;;;;27.78;44.24;100021.88;5059274;28;20056;-85
2022/08/25 08:53:58;;;;;;;4.50;2.90;;;;;;;27.87;44.05;100025.28;5059229;28;20053;-83
2022/08/25 08:56:29;;;;;;;5.45;3.22;;;;;;;28.00;44.28;100020.00;5060441;28;20491;-86
2022/08/25 08:59:03;;;;;;;7.57;3.05;;;;;;;28.10;43.95;100025.03;5058386;28;20053;-87
2022/08/25 09:01:45;;;;;;;4.35;2.97;;;;;;;28.17;44.02;100020.53;5060447;28;20045;-86
2022/08/25 09:04:25;;;;;;;4.07;2.95;;;;;;;28.30;43.82;100014.38;5055995;28;20374;-86
2022/08/25 09:06:56;;;;;;;4.78;3.00;;;;;;;28.44;43.61;100014.47;5055851;28;20131;-86
2022/08/25 09:09:29;;;;;;;4.45;3.10;;;;;;;28.54;43.89;100019.50;5058269;28;20517;-86
2022/08/25 09:12:23;;;;;;;5.93;3.20;;;;;;;28.66;43.25;100011.69;5057302;28;20076;-86
2022/08/25 09:14:53;;;;;;;6.45;3.08;;;;;;;28.81;44.06;100006.94;5060235;28;20144;-84
2022/08/25 09:17:56;;;;;;;5.78;3.38;;;;;;;28.87;44.07;100008.00;5059528;28;20056;-85
2022/08/25 09:20:44;;;;;;;5.20;2.85;;;;;;;29.02;43.91;99997.03;5058902;28;20057;-85
2022/08/25 09:23:24;;;;;;;4.43;2.97;;;;;;;29.13;42.96;99998.31;5059704;28;20044;-87
2022/08/25 09:26:16;;;;;;;5.13;3.05;;;;;;;29.23;43.14;99992.50;5061042;28;20045;-87
2022/08/25 09:28:49;;;;;;;4.72;3.05;;;;;;;29.36;42.15;99987.09;5056889;28;20068;-86
2022/08/25 09:31:30;;;;;;;7.07;3.15;;;;;;;29.44;42.05;99985.22;5059581;28;20057;-87
2022/08/25 09:34:00;;;;;;;3.65;3.13;;;;;;;29.57;41.81;99979.03;5057707;28;20076;-83
2022/08/25 09:36:28;;;;;;;5.60;3.45;;;;;;;29.65;41.94;99982.34;5060343;28;20053;-85
2022/08/25 09:38:56;;;;;;;5.25;2.95;;;;;;;29.74;41.26;99976.72;5058510;28;20084;-86
2022/08/25 09:41:49;;;;;;;7.68;3.60;;;;;;;29.77;41.12;99979.00;5056543;28;20095;-85
2022/08/25 09:44:23;;;;;;;5.28;3.10;;;;;;;29.88;40.64;99980.25;5051409;28;20108;-85
2022/08/25 09:46:54;;;;;;;4.85;3.20;;;;;;;29.94;40.35;99979.44;5054413;28;20048;-84
2022/08/25 09:49:29;;;;;;;4.60;3.22;;;;;;;30.01;40.40;99971.28;5055606;28;20053;-85
2022/08/25 09:52:22;;;;;;;5.07;3.40;;;;;;;30.03;40.25;99970.03;5055673;28;20538;-86
2022/08/25 09:54:51;;;;;;;;;;;;;;;30.14;40.45;99967.72;5055521;28;20068;-85
2022/08/25 09:57:41;;;;;;;5.35;2.85;;;;;;;30.22;40.27;99953.94;5053725;28;19925;-85
2022/08/25 10:00:14;;;;;;;5.25;2.78;;;;;;;30.29;39.79;99957.47;5053422;28;20052;-84
2022/08/25 10:02:44;;;;;;;4.82;2.80;;;;;;;30.36;40.00;99956.59;5054636;28;20041;-85
2022/08/25 10:05:24;;;;;;;4.82;2.88;;;;;;;30.38;39.92;99952.63;5054929;28;20052;-85
2022/08/25 10:07:59;;;;;;;4.80;2.65;;;;;;;30.48;39.04;99944.03;5054402;28;20457;-85
2022/08/25 10:10:37;;;;;;;4.15;2.60;;;;;;;30.55;39.37;99939.41;5055032;28;20076;-85
2022/08/25 10:13:19;;;;;;;5.00;3.05;;;;;;;30.62;39.33;99935.81;5054171;28;20045;-84
2022/08/25 10:16:04;;;;;;;3.97;2.67;;;;;;;30.68;38.97;99935.78;5054247;28;20156;-87
2022/08/25 10:19:08;;;;;;;3.10;2.80;;;;;;;30.79;39.83;99930.72;5054388;28;20053;-85
2022/08/25 10:21:38;;;;;;;4.32;2.67;;;;;;;30.92;38.65;99932.56;5055058;28;20096;-84
2022/08/25 10:24:06;;;;;;;4.32;2.70;;;;;;;30.99;38.38;99925.19;5055790;28;20057;-84
2022/08/25 10:26:55;;;;;;;7.80;3.17;;;;;;;31.05;39.62;99918.88;5056042;28;20057;-84
2022/08/25 10:29:29;;;;;;;4.35;2.70;;;;;;;31.18;39.01;99917.13;5057726;28;20045;-87
2022/08/25 10:32:33;;;;;;;5.25;2.78;;;;;;;31.29;38.91;99918.28;5054860;28;20090;-85
2022/08/25 10:35:11;;;;;;;3.90;2.87;;;;;;;31.42;37.72;99911.91;5054614;28;20383;-85
2022/08/25 10:38:09;;;;;;;4.90;2.55;;;;;;;31.49;38.36;99901.81;5055614;28;20049;-87
2022/08/25 10:40:50;;;;;;;5.13;2.80;;;;;;;31.58;37.74;99891.50;5054531;28;20454;-86
2022/08/25 10:43:34;;;;;;;3.38;2.83;;;;;;;31.65;38.00;99883.28;5053078;28;20529;-84
2022/08/25 10:46:36;;;;;;;3.05;2.80;;;;;;;31.70;37.68;99883.44;5053710;28;20053;-84
2022/08/25 10:49:18;;;;;;;6.90;3.10;;;;;;;31.80;37.01;99883.72;5054552;28;20434;-84
2022/08/25 10:51:54;;;;;;;5.53;2.70;;;;;;;31.90;37.62;99875.06;5053786;28;20056;-83
2022/08/25 10:54:39;;;;;;;3.53;2.92;;;;;;;31.96;37.45;99868.72;5054047;28;20056;-86
2022/08/25 10:57:25;;;;;;;5.18;2.95;;;;;;;32.05;37.61;99863.81;5053346;28;20056;-86
2022/08/25 11:00:11;;;;;;;5.00;3.00;;;;;;;32.25;37.53;99865.44;5053311;28;20119;-84
2022/08/25 11:03:26;;;;;;;4.50;2.85;;;;;;;32.50;37.32;99862.63;5054460;28;20075;-85
2022/08/25 11:06:08;;;;;;;2.60;2.33;;;;;;;32.99;36.89;99860.84;5053217;28;20052;-86
2022/08/25 11:08:41;;;;;;;4.15;2.90;;;;;;;33.44;36.36;99847.78;5052311;28;20550;-84
2022/08/25 11:11:23;;;;;;;4.20;3.00;;;;;;;33.98;36.17;99857.69;5053947;28;20064;-84
2022/08/25 11:13:59;;;;;;;3.92;2.70;;;;;;;34.58;35.97;99859.16;5052591;28;20053;-87
2022/08/25 11:16:47;;;;;;;5.40;2.42;;;;;;;35.26;35.65;99854.03;5053812;28;20064;-86
2022/08/25 11:19:25;;;;;;;3.20;2.50;;;;;;;35.93;34.14;99852.25;5053739;28;20077;-86
2022/08/25 11:22:34;;;;;;;4.72;2.83;;;;;;;36.59;34.06;99858.72;5054049;28;20072;-86
2022/08/25 11:25:24;;;;;;;3.58;2.45;;;;;;;37.32;33.72;99845.66;5054120;28;20056;-85
2022/08/25 11:28:02;;;;;;;3.22;2.47;;;;;;;37.91;31.61;99851.22;5053821;28;20056;-86
2022/08/25 11:30:29;;;;;;;3.38;2.45;;;;;;;38.38;32.09;99849.44;5053478;28;20629;-85
2022/08/25 11:32:57;;;;;;;4.78;2.88;;;;;;;38.80;31.21;99844.03;5053452;28;20068;-86
2022/08/25 11:35:34;;;;;;;3.80;2.65;;;;;;;39.15;29.73;99847.88;5053165;28;20507;-84
2022/08/25 11:38:06;;;;;;;5.18;3.17;;;;;;;39.48;29.04;99842.03;5053002;28;20506;-85
2022/08/25 11:40:48;;;;;;;4.05;2.67;;;;;;;39.78;28.66;99839.44;5052889;28;20476;-85
2022/08/25 11:43:38;;;;;;;4.15;2.70;;;;;;;40.05;28.44;99839.09;5052792;28;20367;-85
2022/08/25 11:46:26;;;;;;;3.65;2.90;;;;;;;40.30;27.87;99834.53;5053695;28;20056;-85
2022/08/25 11:49:14;;;;;;;3.33;2.63;;;;;;;40.57;28.02;99844.28;5052363;28;20529;-84
2022/08/25 11:51:47;;;;;;;6.43;3.10;;;;;;;40.85;27.05;99843.81;5053026;28;20048;-85
2022/08/25 11:54:38;;;;;;;3.47;2.55;;;;;;;41.08;27.01;99844.16;5051677;28;20045;-85